TimeCDT,TemperatureF,Dew PointF,Humidity,Sea Level PressureIn,VisibilityMPH,Wind Direction,Wind SpeedMPH,Gust SpeedMPH,PrecipitationIn,Events,Conditions,WindDirDegrees,DateUTC
12:53 AM,86.0,63.0,46,29.89,10.0,South,24.2,34.5,0.00,,Scattered Clouds,190,2013-07-08 05:53:00
1:53 AM,78.1,68.0,71,29.94,10.0,South,13.8,23.0,0.01,Rain,Light Rain,170,2013-07-08 06:53:00
2:53 AM,77.0,69.1,76,29.96,10.0,SSE,5.8,-,0.01,,Overcast,160,2013-07-08 07:53:00
3:53 AM,77.0,68.0,74,29.95,10.0,SSE,6.9,-,N/A,,Partly Cloudy,150,2013-07-08 08:53:00
4:53 AM,75.9,66.9,74,29.96,10.0,SSE,4.6,-,N/A,,Mostly Cloudy,160,2013-07-08 09:53:00
5:53 AM,73.9,66.9,79,29.97,10.0,SSE,8.1,-,N/A,,Clear,160,2013-07-08 10:53:00
6:53 AM,75.0,66.0,73,29.96,10.0,South,10.4,-,N/A,,Clear,170,2013-07-08 11:53:00
7:53 AM,77.0,66.0,69,29.96,10.0,South,9.2,-,N/A,,Partly Cloudy,180,2013-07-08 12:53:00
8:53 AM,82.0,66.0,58,29.96,10.0,South,13.8,20.7,N/A,,Clear,190,2013-07-08 13:53:00
9:53 AM,86.0,64.9,49,29.97,10.0,South,16.1,25.3,N/A,,Clear,190,2013-07-08 14:53:00
10:53 AM,91.0,64.0,41,29.96,10.0,South,20.7,-,N/A,,Clear,190,2013-07-08 15:53:00
11:53 AM,95.0,63.0,34,29.96,10.0,SSW,19.6,27.6,N/A,,Clear,210,2013-07-08 16:53:00
12:53 PM,96.1,62.1,32,29.93,10.0,SSW,20.7,25.3,N/A,,Clear,200,2013-07-08 17:53:00
1:53 PM,100.9,59.0,25,29.91,10.0,South,19.6,28.8,N/A,,Clear,190,2013-07-08 18:53:00
2:53 PM,102.0,60.1,25,29.90,10.0,SSW,20.7,27.6,N/A,,Clear,210,2013-07-08 19:53:00
3:53 PM,100.9,60.1,26,29.89,10.0,South,13.8,24.2,N/A,,Partly Cloudy,180,2013-07-08 20:53:00
4:53 PM,102.0,59.0,24,29.89,10.0,South,16.1,-,N/A,,Clear,180,2013-07-08 21:53:00
5:53 PM,100.9,59.0,25,29.87,10.0,SSW,18.4,27.6,N/A,,Clear,200,2013-07-08 22:53:00
6:53 PM,100.0,55.9,23,29.86,10.0,South,15.0,25.3,N/A,,Clear,180,2013-07-08 23:53:00
7:53 PM,96.1,59.0,29,29.86,10.0,SSE,12.7,-,N/A,,Clear,160,2013-07-09 00:53:00
8:53 PM,93.0,61.0,34,29.87,10.0,SSE,12.7,-,N/A,,Clear,160,2013-07-09 01:53:00
9:53 PM,90.0,63.0,40,29.88,10.0,SSE,16.1,-,N/A,,Clear,160,2013-07-09 02:53:00
10:53 PM,88.0,64.0,45,29.90,10.0,SSE,16.1,-,N/A,,Clear,160,2013-07-09 03:53:00
11:53 PM,88.0,64.0,45,29.89,10.0,South,17.3,25.3,N/A,,Clear,180,2013-07-09 04:53:00